sensor_id;sensor_type;location;lat;lon;timestamp;P1;durP1;ratioP1;P2;durP2;ratioP2
32186;SDS011;18686;53.084;8.872;2022-07-10T00:00:07;6.90;;;1.42;;
32186;SDS011;18686;53.084;8.872;2022-07-10T00:02:40;5.57;;;1.35;;
32186;SDS011;18686;53.084;8.872;2022-07-10T00:05:10;5.93;;;1.52;;
32186;SDS011;18686;53.084;8.872;2022-07-10T00:07:45;9.45;;;1.40;;
32186;SDS011;18686;53.084;8.872;2022-07-10T00:10:14;4.80;;;1.33;;
32186;SDS011;18686;53.084;8.872;2022-07-10T00:12:42;5.60;;;1.25;;
32186;SDS011;18686;53.084;8.872;2022-07-10T00:15:11;4.75;;;1.15;;
32186;SDS011;18686;53.084;8.872;2022-07-10T00:17:40;7.43;;;1.50;;
32186;SDS011;18686;53.084;8.872;2022-07-10T00:20:09;8.55;;;1.35;;
32186;SDS011;18686;53.084;8.872;2022-07-10T00:22:40;6.22;;;1.10;;
32186;SDS011;18686;53.084;8.872;2022-07-10T00:25:10;4.57;;;1.08;;
32186;SDS011;18686;53.084;8.872;2022-07-10T00:27:39;4.90;;;1.13;;
32186;SDS011;18686;53.084;8.872;2022-07-10T00:30:07;7.75;;;1.50;;
32186;SDS011;18686;53.084;8.872;2022-07-10T00:32:36;7.05;;;1.45;;
32186;SDS011;18686;53.084;8.872;2022-07-10T00:35:05;6.88;;;1.17;;
32186;SDS011;18686;53.084;8.872;2022-07-10T00:37:35;6.00;;;1.20;;
32186;SDS011;18686;53.084;8.872;2022-07-10T00:40:04;10.63;;;2.22;;
32186;SDS011;18686;53.084;8.872;2022-07-10T00:42:33;5.40;;;1.55;;
32186;SDS011;18686;53.084;8.872;2022-07-10T00:45:01;5.97;;;1.30;;
32186;SDS011;18686;53.084;8.872;2022-07-10T00:47:30;6.55;;;1.55;;
32186;SDS011;18686;53.084;8.872;2022-07-10T00:49:58;3.58;;;0.98;;
32186;SDS011;18686;53.084;8.872;2022-07-10T00:52:26;6.57;;;1.40;;
32186;SDS011;18686;53.084;8.872;2022-07-10T00:54:55;5.82;;;1.70;;
32186;SDS011;18686;53.084;8.872;2022-07-10T00:57:24;8.38;;;1.30;;
32186;SDS011;18686;53.084;8.872;2022-07-10T00:59:53;5.75;;;1.25;;
32186;SDS011;18686;53.084;8.872;2022-07-10T01:02:21;5.10;;;1.73;;
32186;SDS011;18686;53.084;8.872;2022-07-10T01:04:50;6.72;;;1.20;;
32186;SDS011;18686;53.084;8.872;2022-07-10T01:07:19;5.10;;;0.90;;
32186;SDS011;18686;53.084;8.872;2022-07-10T01:09:47;6.20;;;1.30;;
32186;SDS011;18686;53.084;8.872;2022-07-10T01:12:17;3.60;;;1.10;;
32186;SDS011;18686;53.084;8.872;2022-07-10T01:14:45;2.80;;;0.70;;
32186;SDS011;18686;53.084;8.872;2022-07-10T01:17:13;8.18;;;0.93;;
32186;SDS011;18686;53.084;8.872;2022-07-10T01:19:41;6.53;;;1.40;;
32186;SDS011;18686;53.084;8.872;2022-07-10T01:22:11;5.35;;;1.17;;
32186;SDS011;18686;53.084;8.872;2022-07-10T01:24:39;7.28;;;1.50;;
32186;SDS011;18686;53.084;8.872;2022-07-10T01:27:07;5.40;;;1.20;;
32186;SDS011;18686;53.084;8.872;2022-07-10T01:29:35;6.43;;;1.60;;
32186;SDS011;18686;53.084;8.872;2022-07-10T01:32:05;7.38;;;1.60;;
32186;SDS011;18686;53.084;8.872;2022-07-10T01:34:34;6.50;;;1.73;;
32186;SDS011;18686;53.084;8.872;2022-07-10T01:37:02;8.75;;;1.38;;
32186;SDS011;18686;53.084;8.872;2022-07-10T01:39:32;8.10;;;1.33;;
32186;SDS011;18686;53.084;8.872;2022-07-10T01:42:00;6.05;;;1.40;;
32186;SDS011;18686;53.084;8.872;2022-07-10T01:44:28;9.98;;;1.17;;
32186;SDS011;18686;53.084;8.872;2022-07-10T01:46:56;9.75;;;1.58;;
32186;SDS011;18686;53.084;8.872;2022-07-10T01:49:24;5.68;;;1.20;;
32186;SDS011;18686;53.084;8.872;2022-07-10T01:51:52;7.47;;;1.67;;
32186;SDS011;18686;53.084;8.872;2022-07-10T01:54:20;6.63;;;1.40;;
32186;SDS011;18686;53.084;8.872;2022-07-10T01:56:50;6.55;;;1.23;;
32186;SDS011;18686;53.084;8.872;2022-07-10T01:59:19;9.43;;;1.35;;
32186;SDS011;18686;53.084;8.872;2022-07-10T02:01:47;7.60;;;1.35;;
32186;SDS011;18686;53.084;8.872;2022-07-10T02:04:15;3.67;;;1.10;;
32186;SDS011;18686;53.084;8.872;2022-07-10T02:07:01;7.57;;;1.17;;
32186;SDS011;18686;53.084;8.872;2022-07-10T02:09:29;6.95;;;1.20;;
32186;SDS011;18686;53.084;8.872;2022-07-10T02:11:58;6.38;;;1.60;;
32186;SDS011;18686;53.084;8.872;2022-07-10T02:14:26;7.28;;;1.80;;
32186;SDS011;18686;53.084;8.872;2022-07-10T02:16:55;4.15;;;1.30;;
32186;SDS011;18686;53.084;8.872;2022-07-10T02:19:23;4.75;;;1.10;;
32186;SDS011;18686;53.084;8.872;2022-07-10T02:21:51;7.43;;;1.60;;
32186;SDS011;18686;53.084;8.872;2022-07-10T02:24:19;7.68;;;1.40;;
32186;SDS011;18686;53.084;8.872;2022-07-10T02:26:47;7.75;;;1.30;;
32186;SDS011;18686;53.084;8.872;2022-07-10T02:29:17;5.80;;;1.33;;
32186;SDS011;18686;53.084;8.872;2022-07-10T02:31:45;9.43;;;1.88;;
32186;SDS011;18686;53.084;8.872;2022-07-10T02:34:13;5.65;;;1.13;;
32186;SDS011;18686;53.084;8.872;2022-07-10T02:36:41;8.77;;;1.42;;
32186;SDS011;18686;53.084;8.872;2022-07-10T02:39:09;5.15;;;1.23;;
32186;SDS011;18686;53.084;8.872;2022-07-10T02:41:37;6.53;;;1.70;;
32186;SDS011;18686;53.084;8.872;2022-07-10T02:44:07;7.95;;;1.38;;
32186;SDS011;18686;53.084;8.872;2022-07-10T02:46:36;7.18;;;1.70;;
32186;SDS011;18686;53.084;8.872;2022-07-10T02:49:05;9.80;;;1.60;;
32186;SDS011;18686;53.084;8.872;2022-07-10T02:51:33;8.80;;;1.85;;
32186;SDS011;18686;53.084;8.872;2022-07-10T02:54:01;7.95;;;2.72;;
32186;SDS011;18686;53.084;8.872;2022-07-10T02:56:29;11.52;;;2.45;;
32186;SDS011;18686;53.084;8.872;2022-07-10T02:58:57;11.23;;;2.13;;
32186;SDS011;18686;53.084;8.872;2022-07-10T03:01:25;9.57;;;1.80;;
32186;SDS011;18686;53.084;8.872;2022-07-10T03:03:55;6.55;;;1.50;;
32186;SDS011;18686;53.084;8.872;2022-07-10T03:06:23;9.13;;;1.23;;
32186;SDS011;18686;53.084;8.872;2022-07-10T03:08:51;4.65;;;1.20;;
32186;SDS011;18686;53.084;8.872;2022-07-10T03:11:19;9.70;;;1.70;;
32186;SDS011;18686;53.084;8.872;2022-07-10T03:13:47;6.32;;;1.20;;
32186;SDS011;18686;53.084;8.872;2022-07-10T03:16:15;9.88;;;1.42;;
32186;SDS011;18686;53.084;8.872;2022-07-10T03:18:43;6.80;;;1.27;;
32186;SDS011;18686;53.084;8.872;2022-07-10T03:21:14;10.55;;;1.35;;
32186;SDS011;18686;53.084;8.872;2022-07-10T03:23:42;8.05;;;1.40;;
32186;SDS011;18686;53.084;8.872;2022-07-10T03:26:10;6.78;;;1.20;;
32186;SDS011;18686;53.084;8.872;2022-07-10T03:28:38;4.78;;;0.98;;
32186;SDS011;18686;53.084;8.872;2022-07-10T03:31:07;8.35;;;2.75;;
32186;SDS011;18686;53.084;8.872;2022-07-10T03:33:36;9.07;;;2.00;;
32186;SDS011;18686;53.084;8.872;2022-07-10T03:36:05;11.05;;;1.73;;
32186;SDS011;18686;53.084;8.872;2022-07-10T03:38:35;13.48;;;1.80;;
32186;SDS011;18686;53.084;8.872;2022-07-10T03:41:03;8.68;;;1.98;;
32186;SDS011;18686;53.084;8.872;2022-07-10T03:43:31;7.13;;;1.65;;
32186;SDS011;18686;53.084;8.872;2022-07-10T03:46:00;8.00;;;1.50;;
32186;SDS011;18686;53.084;8.872;2022-07-10T03:48:28;6.65;;;1.58;;
32186;SDS011;18686;53.084;8.872;2022-07-10T03:50:56;9.68;;;1.80;;
32186;SDS011;18686;53.084;8.872;2022-07-10T03:53:25;7.15;;;1.65;;
32186;SDS011;18686;53.084;8.872;2022-07-10T03:55:54;8.70;;;1.52;;
32186;SDS011;18686;53.084;8.872;2022-07-10T03:58:23;9.48;;;1.80;;
32186;SDS011;18686;53.084;8.872;2022-07-10T04:00:50;6.93;;;1.55;;
32186;SDS011;18686;53.084;8.872;2022-07-10T04:03:18;7.25;;;1.40;;
32186;SDS011;18686;53.084;8.872;2022-07-10T04:05:46;12.43;;;1.67;;
32186;SDS011;18686;53.084;8.872;2022-07-10T04:08:14;10.55;;;2.63;;
32186;SDS011;18686;53.084;8.872;2022-07-10T04:10:42;7.25;;;2.92;;
32186;SDS011;18686;53.084;8.872;2022-07-10T04:13:12;8.52;;;1.85;;
32186;SDS011;18686;53.084;8.872;2022-07-10T04:15:40;7.32;;;1.70;;
32186;SDS011;18686;53.084;8.872;2022-07-10T04:18:09;9.00;;;1.95;;
32186;SDS011;18686;53.084;8.872;2022-07-10T04:20:37;8.30;;;1.60;;
32186;SDS011;18686;53.084;8.872;2022-07-10T04:23:05;7.10;;;1.45;;
32186;SDS011;18686;53.084;8.872;2022-07-10T04:25:33;8.43;;;1.75;;
32186;SDS011;18686;53.084;8.872;2022-07-10T04:28:01;8.13;;;1.63;;
32186;SDS011;18686;53.084;8.872;2022-07-10T04:30:31;7.95;;;1.48;;
32186;SDS011;18686;53.084;8.872;2022-07-10T04:32:59;11.48;;;3.60;;
32186;SDS011;18686;53.084;8.872;2022-07-10T04:35:27;10.55;;;2.83;;
32186;SDS011;18686;53.084;8.872;2022-07-10T04:37:55;9.60;;;2.13;;
32186;SDS011;18686;53.084;8.872;2022-07-10T04:40:23;8.32;;;1.90;;
32186;SDS011;18686;53.084;8.872;2022-07-10T04:42:52;8.93;;;3.15;;
32186;SDS011;18686;53.084;8.872;2022-07-10T04:45:20;9.85;;;3.10;;
32186;SDS011;18686;53.084;8.872;2022-07-10T04:47:49;10.60;;;2.10;;
32186;SDS011;18686;53.084;8.872;2022-07-10T04:50:18;7.63;;;2.45;;
32186;SDS011;18686;53.084;8.872;2022-07-10T04:52:46;8.15;;;2.20;;
32186;SDS011;18686;53.084;8.872;2022-07-10T04:55:14;6.53;;;1.88;;
32186;SDS011;18686;53.084;8.872;2022-07-10T04:57:42;10.27;;;2.30;;
32186;SDS011;18686;53.084;8.872;2022-07-10T05:00:11;7.10;;;1.58;;
32186;SDS011;18686;53.084;8.872;2022-07-10T05:02:40;6.93;;;3.25;;
32186;SDS011;18686;53.084;8.872;2022-07-10T05:05:10;6.47;;;3.30;;
32186;SDS011;18686;53.084;8.872;2022-07-10T05:07:38;8.82;;;3.28;;
32186;SDS011;18686;53.084;8.872;2022-07-10T05:10:06;7.15;;;1.70;;
32186;SDS011;18686;53.084;8.872;2022-07-10T05:12:35;4.35;;;1.48;;
32186;SDS011;18686;53.084;8.872;2022-07-10T05:15:03;4.88;;;1.60;;
32186;SDS011;18686;53.084;8.872;2022-07-10T05:17:32;6.05;;;1.90;;
32186;SDS011;18686;53.084;8.872;2022-07-10T05:20:00;9.65;;;1.80;;
32186;SDS011;18686;53.084;8.872;2022-07-10T05:22:30;7.13;;;1.95;;
32186;SDS011;18686;53.084;8.872;2022-07-10T05:24:58;6.90;;;1.42;;
32186;SDS011;18686;53.084;8.872;2022-07-10T05:27:26;8.98;;;1.58;;
32186;SDS011;18686;53.084;8.872;2022-07-10T05:29:54;8.60;;;1.52;;
32186;SDS011;18686;53.084;8.872;2022-07-10T05:32:22;10.43;;;1.80;;
32186;SDS011;18686;53.084;8.872;2022-07-10T05:34:51;5.35;;;1.63;;
32186;SDS011;18686;53.084;8.872;2022-07-10T05:37:19;10.30;;;1.83;;
32186;SDS011;18686;53.084;8.872;2022-07-10T05:39:49;11.77;;;2.13;;
32186;SDS011;18686;53.084;8.872;2022-07-10T05:42:17;9.65;;;2.10;;
32186;SDS011;18686;53.084;8.872;2022-07-10T05:44:45;8.90;;;1.60;;
32186;SDS011;18686;53.084;8.872;2022-07-10T05:47:13;8.63;;;1.80;;
32186;SDS011;18686;53.084;8.872;2022-07-10T05:49:41;10.70;;;2.28;;
32186;SDS011;18686;53.084;8.872;2022-07-10T05:52:09;9.55;;;1.67;;
32186;SDS011;18686;53.084;8.872;2022-07-10T05:54:38;11.60;;;2.03;;
32186;SDS011;18686;53.084;8.872;2022-07-10T05:57:07;5.22;;;1.70;;
32186;SDS011;18686;53.084;8.872;2022-07-10T05:59:35;12.68;;;2.28;;
32186;SDS011;18686;53.084;8.872;2022-07-10T06:02:03;10.05;;;2.13;;
32186;SDS011;18686;53.084;8.872;2022-07-10T06:04:32;8.57;;;1.67;;
32186;SDS011;18686;53.084;8.872;2022-07-10T06:07:00;7.93;;;1.80;;
32186;SDS011;18686;53.084;8.872;2022-07-10T06:09:28;8.93;;;2.00;;
32186;SDS011;18686;53.084;8.872;2022-07-10T06:11:56;5.80;;;1.63;;
32186;SDS011;18686;53.084;8.872;2022-07-10T06:14:26;7.15;;;1.70;;
32186;SDS011;18686;53.084;8.872;2022-07-10T06:16:54;10.15;;;1.55;;
32186;SDS011;18686;53.084;8.872;2022-07-10T06:19:22;7.55;;;1.50;;
32186;SDS011;18686;53.084;8.872;2022-07-10T06:21:50;8.25;;;1.63;;
32186;SDS011;18686;53.084;8.872;2022-07-10T06:24:38;6.00;;;2.05;;
32186;SDS011;18686;53.084;8.872;2022-07-10T06:27:06;9.77;;;1.77;;
32186;SDS011;18686;53.084;8.872;2022-07-10T06:29:36;6.43;;;1.73;;
32186;SDS011;18686;53.084;8.872;2022-07-10T06:32:04;12.98;;;2.20;;
32186;SDS011;18686;53.084;8.872;2022-07-10T06:34:33;6.25;;;2.03;;
32186;SDS011;18686;53.084;8.872;2022-07-10T06:37:01;11.70;;;3.90;;
32186;SDS011;18686;53.084;8.872;2022-07-10T06:39:31;9.57;;;2.65;;
32186;SDS011;18686;53.084;8.872;2022-07-10T06:44:38;8.10;;;2.13;;
32186;SDS011;18686;53.084;8.872;2022-07-10T06:47:06;6.85;;;1.65;;
32186;SDS011;18686;53.084;8.872;2022-07-10T06:49:52;11.27;;;2.28;;
32186;SDS011;18686;53.084;8.872;2022-07-10T06:52:21;7.50;;;1.77;;
32186;SDS011;18686;53.084;8.872;2022-07-10T06:54:50;10.90;;;2.13;;
32186;SDS011;18686;53.084;8.872;2022-07-10T06:57:19;7.75;;;1.60;;
32186;SDS011;18686;53.084;8.872;2022-07-10T06:59:49;9.07;;;1.70;;
32186;SDS011;18686;53.084;8.872;2022-07-10T07:02:17;9.57;;;2.03;;
32186;SDS011;18686;53.084;8.872;2022-07-10T07:04:46;9.25;;;1.85;;
32186;SDS011;18686;53.084;8.872;2022-07-10T07:07:14;9.75;;;1.85;;
32186;SDS011;18686;53.084;8.872;2022-07-10T07:09:50;8.18;;;1.95;;
32186;SDS011;18686;53.084;8.872;2022-07-10T07:12:18;5.43;;;1.77;;
32186;SDS011;18686;53.084;8.872;2022-07-10T07:14:48;9.05;;;1.80;;
32186;SDS011;18686;53.084;8.872;2022-07-10T07:17:16;8.68;;;1.95;;
32186;SDS011;18686;53.084;8.872;2022-07-10T07:19:50;7.30;;;2.20;;
32186;SDS011;18686;53.084;8.872;2022-07-10T07:22:38;7.55;;;1.90;;
32186;SDS011;18686;53.084;8.872;2022-07-10T07:25:24;6.68;;;1.80;;
32186;SDS011;18686;53.084;8.872;2022-07-10T07:27:52;9.18;;;1.90;;
32186;SDS011;18686;53.084;8.872;2022-07-10T07:30:22;9.60;;;1.75;;
32186;SDS011;18686;53.084;8.872;2022-07-10T07:32:50;7.88;;;2.17;;
32186;SDS011;18686;53.084;8.872;2022-07-10T07:35:18;5.20;;;1.63;;
32186;SDS011;18686;53.084;8.872;2022-07-10T07:37:47;6.53;;;1.83;;
32186;SDS011;18686;53.084;8.872;2022-07-10T07:40:16;7.88;;;1.70;;
32186;SDS011;18686;53.084;8.872;2022-07-10T07:42:47;7.47;;;1.60;;
32186;SDS011;18686;53.084;8.872;2022-07-10T07:45:16;5.72;;;1.90;;
32186;SDS011;18686;53.084;8.872;2022-07-10T07:47:46;7.22;;;2.10;;
32186;SDS011;18686;53.084;8.872;2022-07-10T07:50:16;6.13;;;1.67;;
32186;SDS011;18686;53.084;8.872;2022-07-10T07:52:45;5.93;;;1.60;;
32186;SDS011;18686;53.084;8.872;2022-07-10T07:55:14;85.10;;;17.20;;
32186;SDS011;18686;53.084;8.872;2022-07-10T07:57:44;54.72;;;13.13;;
32186;SDS011;18686;53.084;8.872;2022-07-10T08:00:13;36.45;;;8.85;;
32186;SDS011;18686;53.084;8.872;2022-07-10T08:02:43;15.38;;;4.07;;
32186;SDS011;18686;53.084;8.872;2022-07-10T08:05:13;13.15;;;3.33;;
32186;SDS011;18686;53.084;8.872;2022-07-10T08:07:42;9.13;;;2.78;;
32186;SDS011;18686;53.084;8.872;2022-07-10T08:10:14;9.27;;;2.58;;
32186;SDS011;18686;53.084;8.872;2022-07-10T08:12:44;10.70;;;2.22;;
32186;SDS011;18686;53.084;8.872;2022-07-10T08:15:14;9.20;;;2.33;;
32186;SDS011;18686;53.084;8.872;2022-07-10T08:17:44;7.97;;;1.55;;
32186;SDS011;18686;53.084;8.872;2022-07-10T08:20:15;6.70;;;1.63;;
32186;SDS011;18686;53.084;8.872;2022-07-10T08:22:44;4.45;;;1.80;;
32186;SDS011;18686;53.084;8.872;2022-07-10T08:25:13;7.93;;;1.73;;
32186;SDS011;18686;53.084;8.872;2022-07-10T08:27:41;5.43;;;1.63;;
32186;SDS011;18686;53.084;8.872;2022-07-10T08:30:10;7.15;;;1.70;;
32186;SDS011;18686;53.084;8.872;2022-07-10T08:32:39;5.70;;;1.50;;
32186;SDS011;18686;53.084;8.872;2022-07-10T08:35:09;4.60;;;1.60;;
32186;SDS011;18686;53.084;8.872;2022-07-10T08:37:38;5.57;;;1.77;;
32186;SDS011;18686;53.084;8.872;2022-07-10T08:40:07;4.60;;;1.40;;
32186;SDS011;18686;53.084;8.872;2022-07-10T08:42:37;4.35;;;1.65;;
32186;SDS011;18686;53.084;8.872;2022-07-10T08:45:11;10.23;;;1.75;;
32186;SDS011;18686;53.084;8.872;2022-07-10T08:47:40;4.90;;;1.52;;
32186;SDS011;18686;53.084;8.872;2022-07-10T08:50:16;6.80;;;1.63;;
32186;SDS011;18686;53.084;8.872;2022-07-10T08:52:48;6.10;;;1.42;;
32186;SDS011;18686;53.084;8.872;2022-07-10T08:55:26;5.72;;;1.73;;
32186;SDS011;18686;53.084;8.872;2022-07-10T08:58:00;7.47;;;1.80;;
32186;SDS011;18686;53.084;8.872;2022-07-10T09:00:33;6.15;;;2.10;;
32186;SDS011;18686;53.084;8.872;2022-07-10T09:03:01;7.80;;;1.75;;
32186;SDS011;18686;53.084;8.872;2022-07-10T09:05:31;4.28;;;1.83;;
32186;SDS011;18686;53.084;8.872;2022-07-10T09:07:59;8.38;;;1.88;;
32186;SDS011;18686;53.084;8.872;2022-07-10T09:10:28;6.82;;;1.50;;
32186;SDS011;18686;53.084;8.872;2022-07-10T09:12:57;5.38;;;1.33;;
32186;SDS011;18686;53.084;8.872;2022-07-10T09:15:28;4.47;;;1.58;;
32186;SDS011;18686;53.084;8.872;2022-07-10T09:18:00;4.20;;;1.60;;
32186;SDS011;18686;53.084;8.872;2022-07-10T09:20:30;8.48;;;2.00;;
32186;SDS011;18686;53.084;8.872;2022-07-10T09:23:09;7.40;;;1.58;;
32186;SDS011;18686;53.084;8.872;2022-07-10T09:25:44;7.28;;;2.08;;
32186;SDS011;18686;53.084;8.872;2022-07-10T09:28:15;7.72;;;1.33;;
32186;SDS011;18686;53.084;8.872;2022-07-10T09:30:45;5.88;;;1.80;;
32186;SDS011;18686;53.084;8.872;2022-07-10T09:33:15;5.43;;;1.35;;
32186;SDS011;18686;53.084;8.872;2022-07-10T09:35:56;4.55;;;1.77;;
32186;SDS011;18686;53.084;8.872;2022-07-10T09:41:30;5.82;;;1.42;;
32186;SDS011;18686;53.084;8.872;2022-07-10T09:43:59;4.65;;;1.10;;
32186;SDS011;18686;53.084;8.872;2022-07-10T09:46:30;4.85;;;1.10;;
32186;SDS011;18686;53.084;8.872;2022-07-10T09:49:00;5.47;;;1.42;;
32186;SDS011;18686;53.084;8.872;2022-07-10T09:51:32;5.63;;;2.00;;
32186;SDS011;18686;53.084;8.872;2022-07-10T09:54:01;3.28;;;1.35;;
32186;SDS011;18686;53.084;8.872;2022-07-10T09:56:33;6.57;;;1.40;;
32186;SDS011;18686;53.084;8.872;2022-07-10T09:59:08;4.95;;;1.67;;
32186;SDS011;18686;53.084;8.872;2022-07-10T10:01:40;6.28;;;1.90;;
32186;SDS011;18686;53.084;8.872;2022-07-10T10:06:42;4.90;;;1.40;;
32186;SDS011;18686;53.084;8.872;2022-07-10T10:09:12;7.43;;;1.42;;
32186;SDS011;18686;53.084;8.872;2022-07-10T10:11:46;4.82;;;1.20;;
32186;SDS011;18686;53.084;8.872;2022-07-10T10:14:16;7.07;;;1.30;;
32186;SDS011;18686;53.084;8.872;2022-07-10T10:16:47;4.43;;;1.23;;
32186;SDS011;18686;53.084;8.872;2022-07-10T10:19:15;5.88;;;1.20;;
32186;SDS011;18686;53.084;8.872;2022-07-10T10:22:05;9.38;;;1.83;;
32186;SDS011;18686;53.084;8.872;2022-07-10T10:24:41;6.43;;;1.20;;
32186;SDS011;18686;53.084;8.872;2022-07-10T10:27:10;6.05;;;1.52;;
32186;SDS011;18686;53.084;8.872;2022-07-10T10:29:38;5.90;;;1.38;;
32186;SDS011;18686;53.084;8.872;2022-07-10T10:32:07;5.53;;;1.35;;
32186;SDS011;18686;53.084;8.872;2022-07-10T10:34:40;7.70;;;1.88;;
32186;SDS011;18686;53.084;8.872;2022-07-10T10:37:35;4.93;;;1.60;;
32186;SDS011;18686;53.084;8.872;2022-07-10T10:40:04;7.13;;;1.40;;
32186;SDS011;18686;53.084;8.872;2022-07-10T10:42:37;8.95;;;1.55;;
32186;SDS011;18686;53.084;8.872;2022-07-10T10:48:04;5.65;;;1.13;;
32186;SDS011;18686;53.084;8.872;2022-07-10T10:50:54;5.80;;;1.30;;
32186;SDS011;18686;53.084;8.872;2022-07-10T10:53:25;7.20;;;1.48;;
32186;SDS011;18686;53.084;8.872;2022-07-10T10:58:51;7.25;;;1.65;;
32186;SDS011;18686;53.084;8.872;2022-07-10T11:01:24;7.03;;;1.55;;
32186;SDS011;18686;53.084;8.872;2022-07-10T11:06:42;6.20;;;1.75;;
32186;SDS011;18686;53.084;8.872;2022-07-10T11:09:28;8.35;;;1.88;;
32186;SDS011;18686;53.084;8.872;2022-07-10T11:11:57;3.90;;;1.40;;
32186;SDS011;18686;53.084;8.872;2022-07-10T11:14:26;8.80;;;1.70;;
32186;SDS011;18686;53.084;8.872;2022-07-10T11:16:55;6.93;;;1.45;;
32186;SDS011;18686;53.084;8.872;2022-07-10T11:19:24;6.95;;;1.80;;
32186;SDS011;18686;53.084;8.872;2022-07-10T11:25:11;8.43;;;1.85;;
32186;SDS011;18686;53.084;8.872;2022-07-10T11:28:01;5.47;;;1.70;;
32186;SDS011;18686;53.084;8.872;2022-07-10T11:30:45;9.00;;;1.60;;
32186;SDS011;18686;53.084;8.872;2022-07-10T11:33:14;5.43;;;1.50;;
32186;SDS011;18686;53.084;8.872;2022-07-10T11:35:44;9.32;;;1.67;;
32186;SDS011;18686;53.084;8.872;2022-07-10T11:38:18;5.25;;;1.35;;
32186;SDS011;18686;53.084;8.872;2022-07-10T11:40:48;7.65;;;1.90;;
32186;SDS011;18686;53.084;8.872;2022-07-10T11:43:18;7.22;;;1.88;;
32186;SDS011;18686;53.084;8.872;2022-07-10T11:45:50;7.90;;;1.55;;
32186;SDS011;18686;53.084;8.872;2022-07-10T11:48:20;5.03;;;1.48;;
32186;SDS011;18686;53.084;8.872;2022-07-10T11:50:49;4.30;;;1.30;;
32186;SDS011;18686;53.084;8.872;2022-07-10T11:53:22;3.90;;;1.65;;
32186;SDS011;18686;53.084;8.872;2022-07-10T11:55:52;7.28;;;1.48;;
32186;SDS011;18686;53.084;8.872;2022-07-10T11:58:20;4.15;;;1.30;;
32186;SDS011;18686;53.084;8.872;2022-07-10T12:01:02;5.38;;;1.40;;
32186;SDS011;18686;53.084;8.872;2022-07-10T12:03:33;4.97;;;1.47;;
32186;SDS011;18686;53.084;8.872;2022-07-10T12:06:05;3.63;;;1.25;;
32186;SDS011;18686;53.084;8.872;2022-07-10T12:08:44;5.68;;;1.58;;
32186;SDS011;18686;53.084;8.872;2022-07-10T12:11:14;5.18;;;1.13;;
32186;SDS011;18686;53.084;8.872;2022-07-10T12:13:44;4.65;;;1.55;;
32186;SDS011;18686;53.084;8.872;2022-07-10T12:16:13;7.38;;;1.25;;
32186;SDS011;18686;53.084;8.872;2022-07-10T12:18:42;7.28;;;1.60;;
32186;SDS011;18686;53.084;8.872;2022-07-10T12:21:13;7.95;;;1.48;;
32186;SDS011;18686;53.084;8.872;2022-07-10T12:23:45;6.80;;;1.50;;
32186;SDS011;18686;53.084;8.872;2022-07-10T12:26:16;3.25;;;1.20;;
32186;SDS011;18686;53.084;8.872;2022-07-10T12:28:51;4.05;;;1.42;;
32186;SDS011;18686;53.084;8.872;2022-07-10T12:31:24;3.85;;;0.90;;
32186;SDS011;18686;53.084;8.872;2022-07-10T12:33:55;4.70;;;1.15;;
32186;SDS011;18686;53.084;8.872;2022-07-10T12:36:40;3.73;;;0.80;;
32186;SDS011;18686;53.084;8.872;2022-07-10T12:39:10;6.70;;;1.67;;
32186;SDS011;18686;53.084;8.872;2022-07-10T12:42:00;5.43;;;1.30;;
32186;SDS011;18686;53.084;8.872;2022-07-10T12:44:31;5.55;;;1.15;;
32186;SDS011;18686;53.084;8.872;2022-07-10T12:47:00;4.65;;;1.00;;
32186;SDS011;18686;53.084;8.872;2022-07-10T12:49:29;3.25;;;0.90;;
32186;SDS011;18686;53.084;8.872;2022-07-10T12:51:57;2.10;;;1.10;;
32186;SDS011;18686;53.084;8.872;2022-07-10T12:54:40;3.70;;;1.10;;
32186;SDS011;18686;53.084;8.872;2022-07-10T12:57:10;3.40;;;1.17;;
32186;SDS011;18686;53.084;8.872;2022-07-10T12:59:38;3.78;;;1.00;;
32186;SDS011;18686;53.084;8.872;2022-07-10T13:02:15;4.63;;;1.20;;
32186;SDS011;18686;53.084;8.872;2022-07-10T13:04:53;5.90;;;1.27;;
32186;SDS011;18686;53.084;8.872;2022-07-10T13:07:29;3.22;;;0.90;;
32186;SDS011;18686;53.084;8.872;2022-07-10T13:09:58;2.03;;;0.63;;
32186;SDS011;18686;53.084;8.872;2022-07-10T13:12:31;4.97;;;0.95;;
32186;SDS011;18686;53.084;8.872;2022-07-10T13:15:00;3.10;;;0.73;;
32186;SDS011;18686;53.084;8.872;2022-07-10T13:17:29;3.22;;;0.60;;
32186;SDS011;18686;53.084;8.872;2022-07-10T13:19:57;4.90;;;0.70;;
32186;SDS011;18686;53.084;8.872;2022-07-10T13:22:25;2.10;;;0.70;;
32186;SDS011;18686;53.084;8.872;2022-07-10T13:24:54;1.95;;;0.65;;
32186;SDS011;18686;53.084;8.872;2022-07-10T13:27:22;1.98;;;0.55;;
32186;SDS011;18686;53.084;8.872;2022-07-10T13:29:52;3.13;;;0.75;;
32186;SDS011;18686;53.084;8.872;2022-07-10T13:32:20;3.95;;;2.03;;
32186;SDS011;18686;53.084;8.872;2022-07-10T13:34:55;4.03;;;1.65;;
32186;SDS011;18686;53.084;8.872;2022-07-10T13:37:23;2.67;;;1.08;;
32186;SDS011;18686;53.084;8.872;2022-07-10T13:39:51;1.40;;;0.60;;
32186;SDS011;18686;53.084;8.872;2022-07-10T13:42:19;2.22;;;0.77;;
32186;SDS011;18686;53.084;8.872;2022-07-10T13:44:48;2.63;;;0.50;;
32186;SDS011;18686;53.084;8.872;2022-07-10T13:47:17;2.47;;;0.57;;
32186;SDS011;18686;53.084;8.872;2022-07-10T13:49:46;5.10;;;0.52;;
32186;SDS011;18686;53.084;8.872;2022-07-10T13:52:15;2.85;;;0.70;;
32186;SDS011;18686;53.084;8.872;2022-07-10T13:54:43;3.33;;;0.57;;
32186;SDS011;18686;53.084;8.872;2022-07-10T13:57:11;2.55;;;0.80;;
32186;SDS011;18686;53.084;8.872;2022-07-10T13:59:40;2.65;;;0.90;;
32186;SDS011;18686;53.084;8.872;2022-07-10T14:02:08;2.08;;;0.85;;
32186;SDS011;18686;53.084;8.872;2022-07-10T14:04:43;2.65;;;0.80;;
32186;SDS011;18686;53.084;8.872;2022-07-10T14:07:12;3.17;;;1.00;;
32186;SDS011;18686;53.084;8.872;2022-07-10T14:09:40;5.85;;;0.90;;
32186;SDS011;18686;53.084;8.872;2022-07-10T14:12:08;2.58;;;0.80;;
32186;SDS011;18686;53.084;8.872;2022-07-10T14:14:37;3.47;;;0.63;;
32186;SDS011;18686;53.084;8.872;2022-07-10T14:17:05;5.03;;;0.75;;
32186;SDS011;18686;53.084;8.872;2022-07-10T14:19:33;5.45;;;0.80;;
32186;SDS011;18686;53.084;8.872;2022-07-10T14:22:03;4.10;;;0.88;;
32186;SDS011;18686;53.084;8.872;2022-07-10T14:24:31;2.67;;;0.88;;
32186;SDS011;18686;53.084;8.872;2022-07-10T14:27:05;4.13;;;0.90;;
32186;SDS011;18686;53.084;8.872;2022-07-10T14:29:33;3.05;;;0.95;;
32186;SDS011;18686;53.084;8.872;2022-07-10T14:32:02;2.47;;;0.70;;
32186;SDS011;18686;53.084;8.872;2022-07-10T14:34:33;3.83;;;0.80;;
32186;SDS011;18686;53.084;8.872;2022-07-10T14:37:03;3.50;;;0.98;;
32186;SDS011;18686;53.084;8.872;2022-07-10T14:39:32;3.72;;;1.10;;
32186;SDS011;18686;53.084;8.872;2022-07-10T14:42:02;2.60;;;1.00;;
32186;SDS011;18686;53.084;8.872;2022-07-10T14:45:20;4.32;;;0.90;;
32186;SDS011;18686;53.084;8.872;2022-07-10T14:48:10;4.88;;;0.93;;
32186;SDS011;18686;53.084;8.872;2022-07-10T14:50:38;3.38;;;1.02;;
32186;SDS011;18686;53.084;8.872;2022-07-10T14:53:09;2.35;;;0.75;;
32186;SDS011;18686;53.084;8.872;2022-07-10T14:55:37;4.40;;;0.82;;
32186;SDS011;18686;53.084;8.872;2022-07-10T14:58:05;3.10;;;0.77;;
32186;SDS011;18686;53.084;8.872;2022-07-10T15:00:34;4.00;;;0.88;;
32186;SDS011;18686;53.084;8.872;2022-07-10T15:03:02;2.90;;;0.98;;
32186;SDS011;18686;53.084;8.872;2022-07-10T15:05:30;3.25;;;0.75;;
32186;SDS011;18686;53.084;8.872;2022-07-10T15:08:00;3.15;;;0.80;;
32186;SDS011;18686;53.084;8.872;2022-07-10T15:10:30;6.60;;;4.32;;
32186;SDS011;18686;53.084;8.872;2022-07-10T15:12:58;4.85;;;1.92;;
32186;SDS011;18686;53.084;8.872;2022-07-10T15:15:30;5.72;;;1.50;;
32186;SDS011;18686;53.084;8.872;2022-07-10T15:18:00;1.88;;;0.90;;
32186;SDS011;18686;53.084;8.872;2022-07-10T15:20:28;3.72;;;1.20;;
32186;SDS011;18686;53.084;8.872;2022-07-10T15:22:57;2.90;;;1.10;;